Iberia Airport


Codes: SPBR/IBP
Name: Iberia Airport
City: Iberia
Country: Peru
Elevation: 750 ft.

Photos at Iberia Airport


   Photos courtesy of SpottingLog. You can add your own sightings and photos by signing up for a free trial today.



No photos found.

Weather at Iberia Airport


Time (UTC)DescriptionTempratureWindCloud coverageVisibilityPressureHumidity
19-Apr-2024 03:00Broken Clouds22°C2 mph, SE59%10000m1015hPa92%
19-Apr-2024 06:00Broken Clouds22°C2 mph, SE63%10000m1015hPa93%
19-Apr-2024 09:00Broken Clouds21°C2 mph, S63%10000m1014hPa92%
19-Apr-2024 12:00Scattered Clouds23°C4 mph, SE47%10000m1014hPa83%
19-Apr-2024 15:00Scattered Clouds29°C4 mph, SE26%10000m1014hPa59%
19-Apr-2024 18:00Broken Clouds31°C4 mph, SE52%10000m1010hPa53%
19-Apr-2024 21:00Overcast Clouds28°C2 mph, E100%10000m1008hPa73%
20-Apr-2024 00:00Overcast Clouds26°C0 mph, E100%10000m1010hPa74%
20-Apr-2024 03:00Overcast Clouds26°C0 mph, E100%10000m1012hPa73%
20-Apr-2024 06:00Overcast Clouds25°C0 mph, E100%10000m1011hPa75%
20-Apr-2024 09:00Overcast Clouds25°C0 mph, SE100%10000m1011hPa79%
20-Apr-2024 12:00Overcast Clouds25°C0 mph, SE100%10000m1013hPa82%
20-Apr-2024 15:00Overcast Clouds29°C0 mph, W100%10000m1013hPa64%
20-Apr-2024 18:00Overcast Clouds34°C0 mph, W100%10000m1009hPa44%
20-Apr-2024 21:00Overcast Clouds28°C2 mph, E100%10000m1008hPa73%
21-Apr-2024 00:00Overcast Clouds26°C2 mph, E100%10000m1010hPa78%
21-Apr-2024 03:00Light Rain24°C2 mph, NW100%10000m1012hPa96%
21-Apr-2024 06:00Light Rain23°C2 mph, N100%10000m1011hPa97%
21-Apr-2024 09:00Overcast Clouds23°C2 mph, NW100%10000m1011hPa98%
21-Apr-2024 12:00Overcast Clouds24°C2 mph, NW99%10000m1012hPa93%
21-Apr-2024 15:00Overcast Clouds30°C4 mph, NW86%10000m1013hPa62%
21-Apr-2024 18:00Light Rain31°C2 mph, W85%10000m1009hPa63%
21-Apr-2024 21:00Light Rain28°C2 mph, NW62%10000m1007hPa79%
22-Apr-2024 00:00Light Rain24°C2 mph, N77%10000m1009hPa95%
22-Apr-2024 03:00Overcast Clouds23°C2 mph, NW91%10000m1011hPa97%
22-Apr-2024 06:00Overcast Clouds23°C2 mph, NW95%10000m1010hPa97%
22-Apr-2024 09:00Light Rain23°C2 mph, NW100%10000m1009hPa98%
22-Apr-2024 12:00Overcast Clouds24°C2 mph, NW100%10000m1011hPa94%
22-Apr-2024 15:00Light Rain30°C4 mph, NW100%10000m1011hPa64%
22-Apr-2024 18:00Light Rain29°C4 mph, N100%10000m1008hPa84%
22-Apr-2024 21:00Light Rain27°C4 mph, N77%10000m1006hPa85%
23-Apr-2024 00:00Light Rain23°C2 mph, N83%10000m1008hPa96%
23-Apr-2024 03:00Light Rain24°C2 mph, N100%10000m1011hPa98%
23-Apr-2024 06:00Overcast Clouds23°C2 mph, NW100%10000m1010hPa98%
23-Apr-2024 09:00Overcast Clouds23°C2 mph, NW99%10000m1010hPa99%
23-Apr-2024 12:00Overcast Clouds23°C2 mph, NW100%10000m1012hPa97%
23-Apr-2024 15:00Overcast Clouds29°C4 mph, NW100%10000m1013hPa63%
23-Apr-2024 18:00Light Rain31°C4 mph, NW100%10000m1009hPa55%
23-Apr-2024 21:00Overcast Clouds30°C2 mph, NW91%10000m1007hPa64%
24-Apr-2024 00:00Light Rain24°C2 mph, N68%10000m1010hPa91%